Time;durP1;ratioP1;P1;durP2;ratioP2;P2;SDS_P1;SDS_P2;PMS_P1;PMS_P2;Temp;Humidity;BMP_temperature;BMP_pressure;BME280_temperature;BME280_humidity;BME280_pressure;Samples;Min_cycle;Max_cycle;Signal;HPM_P1;HPM_P2
2023/02/07 00:01:18;;;;;;;14.90;7.00;;;;;;;-2.30;64.91;100504.00;79282;1301;3013760;-62
2023/02/07 00:03:45;;;;;;;17.30;7.80;;;;;;;-2.37;65.24;100497.08;79209;1300;3012009;-65
2023/02/07 00:06:21;;;;;;;15.50;7.30;;;;;;;-2.42;65.67;100494.81;78172;1297;3050955;-65
2023/02/07 00:08:49;;;;;;;14.30;6.60;;;;;;;-2.37;65.87;100492.95;78191;1298;3054788;-63
2023/02/07 00:11:18;;;;;;;13.80;6.40;;;;;;;-2.39;65.84;100491.73;79284;1300;3013559;-64
2023/02/07 00:13:50;;;;;;;16.80;7.20;;;;;;;-2.38;65.88;100489.51;78106;1300;3052559;-64
2023/02/07 00:16:17;;;;;;;14.10;5.90;;;;;;;-2.52;66.46;100483.55;79309;1300;3013230;-63
2023/02/07 00:18:44;;;;;;;16.30;7.10;;;;;;;-2.53;66.57;100482.17;79331;1296;3011702;-71
2023/02/07 00:21:13;;;;;;;12.10;6.00;;;;;;;-2.61;66.65;100480.73;77986;1300;3049490;-63
2023/02/07 00:23:40;;;;;;;13.50;6.20;;;;;;;-2.58;66.47;100476.31;79291;1298;3011971;-66
2023/02/07 00:26:15;;;;;;;11.90;5.10;;;;;;;-2.50;65.69;100469.00;77891;1298;3048713;-66
2023/02/07 00:28:43;;;;;;;12.60;5.50;;;;;;;-2.60;65.28;100469.58;79111;1298;3011947;-65
2023/02/07 00:31:12;;;;;;;13.50;5.30;;;;;;;-2.69;65.95;100464.36;77960;1300;3028892;-69
2023/02/07 00:33:40;;;;;;;8.20;5.10;;;;;;;-2.59;66.31;100471.48;79217;1297;3011803;-64
2023/02/07 00:36:12;;;;;;;9.60;4.40;;;;;;;-2.61;66.60;100467.86;77996;1300;3053237;-67
2023/02/07 00:38:39;;;;;;;9.50;4.60;;;;;;;-2.52;66.61;100466.73;79322;1298;3011689;-68
2023/02/07 00:41:06;;;;;;;9.50;4.90;;;;;;;-2.62;66.67;100465.80;79275;1298;3011854;-66
2023/02/07 00:43:34;;;;;;;10.70;4.60;;;;;;;-2.72;66.91;100457.99;77973;1300;3049705;-67
2023/02/07 00:46:02;;;;;;;13.30;4.80;;;;;;;-2.74;65.70;100453.33;79149;1301;3018666;-62
2023/02/07 00:48:29;;;;;;;10.00;5.30;;;;;;;-2.91;65.27;100452.48;79180;1304;3011836;-64
2023/02/07 00:50:58;;;;;;;11.20;4.60;;;;;;;-2.97;65.49;100456.19;78102;1300;3052895;-65
2023/02/07 00:53:25;;;;;;;13.30;5.80;;;;;;;-2.88;65.46;100455.78;79220;1300;3013066;-62
2023/02/07 00:55:52;;;;;;;9.90;5.30;;;;;;;-3.03;65.29;100450.48;79247;1298;3012849;-62
2023/02/07 00:58:20;;;;;;;9.50;5.50;;;;;;;-2.94;65.11;100457.59;77968;1300;3051288;-66
2023/02/07 01:00:47;;;;;;;9.80;5.50;;;;;;;-2.89;65.02;100454.56;79201;1301;3019043;-62
2023/02/07 01:03:14;;;;;;;11.10;5.70;;;;;;;-2.87;64.84;100449.79;79176;1296;3011726;-63
2023/02/07 01:05:46;;;;;;;10.30;5.70;;;;;;;-2.91;64.68;100445.96;77939;1303;3052231;-65
2023/02/07 01:08:17;;;;;;;9.70;5.10;;;;;;;-2.91;64.43;100444.44;79086;1296;3011813;-69
2023/02/07 01:10:45;;;;;;;10.90;5.70;;;;;;;-2.94;64.71;100446.63;77851;1298;3027389;-63
2023/02/07 01:13:12;;;;;;;10.30;4.50;;;;;;;-2.94;64.75;100441.98;79065;1298;3013136;-61
2023/02/07 01:15:40;;;;;;;9.60;5.30;;;;;;;-2.84;64.61;100443.12;79047;1299;3012081;-66
2023/02/07 01:18:08;;;;;;;8.00;3.90;;;;;;;-2.83;64.33;100445.88;77858;1300;3053087;-65
2023/02/07 01:20:38;;;;;;;8.80;5.20;;;;;;;-2.85;63.93;100447.05;79082;1299;3013196;-63
2023/02/07 01:23:07;;;;;;;9.90;4.90;;;;;;;-2.88;64.06;100453.55;78637;1296;3011891;-68
2023/02/07 01:25:33;;;;;;;10.30;5.20;;;;;;;-2.90;64.19;100453.70;79076;1300;3013572;-67
2023/02/07 01:28:02;;;;;;;11.50;5.70;;;;;;;-2.97;64.47;100451.40;79188;1299;3011710;-60
2023/02/07 01:30:30;;;;;;;14.00;5.50;;;;;;;-3.09;64.73;100454.36;77947;1310;3050221;-69
2023/02/07 01:32:57;;;;;;;15.70;6.20;;;;;;;-2.96;64.78;100456.03;79177;1303;3013939;-65
2023/02/07 01:35:24;;;;;;;12.10;5.70;;;;;;;-2.96;64.71;100456.55;79257;1300;3011557;-64
2023/02/07 01:37:52;;;;;;;10.90;5.10;;;;;;;-2.89;64.67;100455.94;78028;1300;3026793;-62
2023/02/07 01:40:19;;;;;;;9.30;4.80;;;;;;;-2.85;64.51;100454.94;79316;1298;3013179;-65
2023/02/07 01:42:45;;;;;;;14.70;5.60;;;;;;;-2.82;64.27;100453.95;79101;1298;3011520;-63
2023/02/07 01:45:36;;;;;;;9.80;5.10;;;;;;;-2.96;64.52;100454.50;77942;1300;3027056;-63
2023/02/07 01:48:07;;;;;;;7.90;4.20;;;;;;;-3.01;65.02;100454.45;77975;1300;3053669;-64
2023/02/07 01:50:35;;;;;;;9.20;4.70;;;;;;;-2.92;64.63;100453.16;79299;1299;3012220;-64
2023/02/07 01:53:04;;;;;;;9.50;4.80;;;;;;;-2.88;64.59;100455.26;78719;1298;3011726;-63
2023/02/07 01:55:32;;;;;;;8.70;4.10;;;;;;;-2.81;64.39;100455.51;79232;1300;3013758;-65
2023/02/07 01:58:03;;;;;;;7.90;4.60;;;;;;;-2.91;64.78;100444.61;78640;1298;3012311;-64
2023/02/07 02:00:30;;;;;;;10.10;4.70;;;;;;;-2.95;65.03;100445.92;79260;1298;3014230;-65
2023/02/07 02:02:57;;;;;;;8.60;4.10;;;;;;;-3.03;65.13;100442.60;79161;1298;3011761;-63
2023/02/07 02:05:26;;;;;;;9.10;4.20;;;;;;;-2.98;65.09;100449.49;77986;1303;3053844;-63
2023/02/07 02:07:53;;;;;;;9.80;4.80;;;;;;;-3.04;65.16;100446.70;79219;1300;3013493;-63
2023/02/07 02:10:21;;;;;;;11.00;4.70;;;;;;;-3.13;65.30;100449.86;79249;1300;3011632;-62
2023/02/07 02:13:29;;;;;;;9.20;3.60;;;;;;;-3.06;64.68;100456.77;77922;1298;3057345;-66
2023/02/07 02:16:04;;;;;;;7.20;3.80;;;;;;;-3.04;64.60;100454.23;77587;1306;3049529;-65
2023/02/07 02:18:50;;;;;;;6.80;3.30;;;;;;;-3.09;64.60;100457.96;79116;1296;3011400;-65
2023/02/07 02:21:40;;;;;;;9.50;4.20;;;;;;;-3.12;64.41;100460.84;78026;1300;3051317;-64
2023/02/07 02:24:45;;;;;;;7.50;3.90;;;;;;;-3.11;64.46;100463.42;78006;1301;3054348;-66
2023/02/07 02:27:28;;;;;;;9.60;4.50;;;;;;;-3.17;64.54;100460.43;77980;1300;3052081;-64
2023/02/07 02:30:27;;;;;;;10.60;4.50;;;;;;;-3.15;64.31;100458.23;78009;1299;3068871;-64
2023/02/07 02:33:20;;;;;;;10.40;4.80;;;;;;;-3.21;64.15;100462.45;77857;1300;3053410;-62
2023/02/07 02:36:08;;;;;;;6.90;3.80;;;;;;;-3.22;63.94;100460.02;76302;1302;3057895;-60
2023/02/07 02:39:09;;;;;;;7.10;3.60;;;;;;;-3.34;63.54;100466.58;77985;1299;3049765;-64
2023/02/07 02:41:41;;;;;;;6.90;3.70;;;;;;;-3.26;63.47;100463.94;77894;1300;3053992;-67
2023/02/07 02:44:20;;;;;;;9.50;4.10;;;;;;;-3.18;63.31;100463.85;79258;1298;3011818;-68
2023/02/07 02:46:48;;;;;;;8.30;4.00;;;;;;;-3.32;63.43;100466.95;77979;1302;3054073;-64
2023/02/07 02:49:15;;;;;;;8.20;3.60;;;;;;;-3.16;63.64;100466.11;79055;1303;3013140;-64
2023/02/07 02:51:41;;;;;;;6.50;3.30;;;;;;;-3.13;62.96;100464.59;79136;1298;3011791;-64
2023/02/07 02:54:29;;;;;;;7.60;3.90;;;;;;;-3.24;62.94;100472.70;77992;1300;3028140;-64
2023/02/07 02:57:05;;;;;;;6.30;3.60;;;;;;;-3.26;63.18;100469.27;78020;1300;3050451;-61
2023/02/07 02:59:39;;;;;;;7.50;4.00;;;;;;;-3.22;63.22;100471.01;77841;1299;3053536;-66
2023/02/07 03:02:25;;;;;;;10.40;3.30;;;;;;;-3.17;63.55;100470.04;79257;1298;3012029;-64
2023/02/07 03:05:35;;;;;;;9.20;3.70;;;;;;;-3.03;63.20;100471.40;78030;1300;3054111;-62
2023/02/07 03:08:11;;;;;;;7.30;3.10;;;;;;;-3.04;63.19;100467.95;77811;1300;3052569;-61
2023/02/07 03:10:55;;;;;;;7.60;3.50;;;;;;;-3.10;63.47;100468.05;77914;1299;3069514;-64
2023/02/07 03:13:32;;;;;;;9.00;3.90;;;;;;;-3.02;63.46;100464.71;78058;1311;3053497;-66
2023/02/07 03:16:18;;;;;;;7.70;4.00;;;;;;;-3.13;63.51;100466.14;77882;1298;3057588;-62
2023/02/07 03:19:21;;;;;;;11.20;4.90;;;;;;;-3.32;64.14;100465.58;77898;1298;3051267;-60
2023/02/07 03:22:13;;;;;;;8.40;5.00;;;;;;;-3.32;64.22;100472.95;77963;1300;3055095;-64
2023/02/07 03:24:46;;;;;;;9.90;4.90;;;;;;;-3.46;64.69;100468.84;77790;1300;3050357;-60
2023/02/07 03:27:14;;;;;;;9.40;5.30;;;;;;;-3.31;64.82;100471.94;79242;1300;3013302;-64
2023/02/07 03:29:45;;;;;;;9.10;4.20;;;;;;;-3.33;63.71;100467.11;78723;1296;3011949;-62
2023/02/07 03:32:12;;;;;;;7.90;4.50;;;;;;;-3.34;63.44;100472.92;79289;1297;3012600;-66
2023/02/07 03:34:51;;;;;;;7.60;3.90;;;;;;;-3.42;62.83;100477.27;78999;1297;3012198;-63
2023/02/07 03:37:22;;;;;;;9.40;4.00;;;;;;;-3.55;62.22;100477.62;77921;1298;3050128;-66
2023/02/07 03:39:49;;;;;;;11.40;4.70;;;;;;;-3.60;61.74;100485.27;79247;1298;3011372;-65
2023/02/07 03:42:34;;;;;;;10.40;4.80;;;;;;;-3.77;61.43;100491.54;77979;1300;3028425;-67
2023/02/07 03:45:03;;;;;;;10.00;4.40;;;;;;;-3.78;61.57;100488.27;77952;1300;3054243;-64
2023/02/07 03:47:30;;;;;;;8.60;4.20;;;;;;;-3.73;61.43;100490.58;79155;1301;3013711;-67
2023/02/07 03:49:57;;;;;;;9.40;4.30;;;;;;;-3.71;61.24;100493.17;79082;1298;3013244;-63
2023/02/07 03:52:24;;;;;;;11.30;4.90;;;;;;;-3.69;61.17;100496.62;77890;1298;3057233;-60
2023/02/07 03:54:51;;;;;;;9.70;4.70;;;;;;;-3.70;60.63;100505.86;79241;1298;3013449;-64
2023/02/07 03:57:17;;;;;;;11.30;5.50;;;;;;;-3.83;60.53;100503.61;79170;1300;3011589;-63
2023/02/07 03:59:45;;;;;;;10.20;5.40;;;;;;;-3.90;61.17;100509.68;77967;1300;3029297;-61
2023/02/07 04:02:12;;;;;;;16.40;6.30;;;;;;;-3.93;61.14;100513.73;79283;1298;3011632;-63
2023/02/07 04:04:39;;;;;;;12.00;5.40;;;;;;;-3.81;61.52;100514.94;79249;1297;3013321;-63
2023/02/07 04:07:07;;;;;;;13.70;6.20;;;;;;;-3.90;61.24;100516.17;77842;1300;3028974;-63
2023/02/07 04:09:33;;;;;;;13.00;5.70;;;;;;;-3.90;61.53;100517.20;79207;1298;3013169;-67
2023/02/07 04:12:00;;;;;;;11.20;5.80;;;;;;;-3.92;61.49;100521.64;79195;1298;3011830;-66
2023/02/07 04:14:28;;;;;;;13.70;5.40;;;;;;;-3.86;61.94;100516.59;77957;1300;3028112;-62
2023/02/07 04:16:55;;;;;;;14.40;5.80;;;;;;;-3.99;61.66;100522.19;79255;1300;3013072;-65
2023/02/07 04:19:21;;;;;;;11.10;5.90;;;;;;;-4.02;62.13;100526.59;79146;1297;3013243;-64
2023/02/07 04:21:49;;;;;;;13.30;5.40;;;;;;;-3.95;62.00;100521.91;77973;1300;3027112;-62
2023/02/07 04:24:16;;;;;;;11.60;5.00;;;;;;;-4.02;61.97;100524.23;79195;1297;3013365;-64
2023/02/07 04:26:43;;;;;;;14.40;5.60;;;;;;;-4.03;62.51;100521.63;79159;1298;3011913;-62
2023/02/07 04:29:11;;;;;;;11.90;5.60;;;;;;;-4.07;62.21;100523.95;77966;1300;3053495;-62
2023/02/07 04:31:39;;;;;;;12.00;5.50;;;;;;;-4.20;63.00;100528.04;79224;1300;3013538;-65
2023/02/07 04:34:05;;;;;;;12.10;6.00;;;;;;;-4.09;62.64;100527.70;79234;1300;3011555;-64
2023/02/07 04:36:33;;;;;;;11.50;5.80;;;;;;;-4.12;62.86;100529.52;77987;1300;3056060;-64
2023/02/07 04:39:00;;;;;;;14.80;5.10;;;;;;;-4.31;63.15;100531.27;79166;1298;3018590;-65
2023/02/07 04:41:27;;;;;;;12.90;5.80;;;;;;;-4.26;63.64;100529.64;79192;1298;3012143;-62
2023/02/07 04:43:55;;;;;;;11.50;5.80;;;;;;;-4.15;63.20;100532.56;78026;1300;3026391;-61
2023/02/07 04:46:22;;;;;;;13.60;5.70;;;;;;;-4.14;62.99;100539.06;79206;1300;3016086;-65
2023/02/07 04:48:49;;;;;;;12.80;6.10;;;;;;;-4.17;63.15;100541.41;79190;1300;3011656;-63
2023/02/07 04:51:16;;;;;;;12.40;5.40;;;;;;;-4.22;63.03;100544.41;78266;1300;3056725;-65
2023/02/07 04:53:45;;;;;;;10.90;5.70;;;;;;;-4.39;64.00;100543.10;79357;1298;3012893;-65
2023/02/07 04:56:12;;;;;;;15.70;6.70;;;;;;;-4.47;64.09;100549.13;79257;1298;3013691;-64
2023/02/07 04:58:40;;;;;;;10.50;5.70;;;;;;;-4.53;64.33;100548.85;78006;1301;3052528;-65
2023/02/07 05:01:07;;;;;;;8.60;4.80;;;;;;;-4.45;64.26;100554.64;79264;1299;3012832;-62
2023/02/07 05:03:33;;;;;;;15.20;6.10;;;;;;;-4.62;64.74;100556.20;79247;1296;3013151;-68
2023/02/07 05:06:01;;;;;;;10.60;5.40;;;;;;;-4.65;65.14;100568.28;78078;1297;3028708;-64
2023/02/07 05:08:28;;;;;;;10.40;4.60;;;;;;;-4.73;65.28;100570.89;79214;1298;3013172;-66
2023/02/07 05:10:55;;;;;;;15.10;5.50;;;;;;;-4.63;64.99;100576.54;79214;1297;3012033;-68
2023/02/07 05:13:23;;;;;;;13.10;6.40;;;;;;;-4.69;64.96;100572.83;77998;1300;3029483;-62
2023/02/07 05:15:50;;;;;;;13.10;5.70;;;;;;;-4.80;65.38;100574.16;79243;1300;3013595;-68
2023/02/07 05:18:17;;;;;;;16.70;6.20;;;;;;;-4.75;65.21;100574.25;79493;1298;3012153;-66
2023/02/07 05:20:45;;;;;;;11.70;5.40;;;;;;;-4.80;65.07;100575.86;77994;1297;3025906;-65
2023/02/07 05:23:11;;;;;;;10.90;5.10;;;;;;;-4.89;65.24;100573.64;79286;1296;3013463;-63
2023/02/07 05:25:41;;;;;;;12.50;5.30;;;;;;;-4.92;65.19;100569.66;79258;1297;3011515;-65
2023/02/07 05:28:09;;;;;;;14.50;5.60;;;;;;;-5.00;65.99;100564.54;77993;1300;3052678;-69
2023/02/07 05:30:37;;;;;;;14.80;5.50;;;;;;;-4.97;65.88;100563.05;79440;1297;3013508;-67
2023/02/07 05:33:04;;;;;;;9.30;4.80;;;;;;;-4.90;65.96;100557.39;79270;1298;3011522;-67
2023/02/07 05:35:40;;;;;;;12.90;5.30;;;;;;;-4.81;65.29;100557.21;78086;1300;3056474;-69
2023/02/07 05:38:09;;;;;;;14.60;5.20;;;;;;;-4.94;65.66;100562.09;78043;1298;3049662;-66
2023/02/07 05:40:37;;;;;;;17.40;6.50;;;;;;;-5.08;65.56;100560.61;79282;1298;3013116;-68
2023/02/07 05:43:03;;;;;;;11.60;5.50;;;;;;;-5.10;65.84;100563.66;79190;1298;3011876;-66
2023/02/07 05:45:31;;;;;;;16.60;7.60;;;;;;;-5.07;66.16;100567.48;78051;1296;3053650;-63
2023/02/07 05:47:59;;;;;;;16.60;7.40;;;;;;;-5.05;66.17;100563.24;79217;1298;3013701;-66
2023/02/07 05:50:26;;;;;;;14.50;6.60;;;;;;;-5.00;65.97;100558.91;79249;1298;3011865;-68
2023/02/07 05:53:06;;;;;;;14.50;6.70;;;;;;;-4.89;65.95;100553.29;77982;1300;3049889;-64
2023/02/07 05:55:32;;;;;;;12.20;6.40;;;;;;;-5.01;66.24;100555.28;79296;1298;3013144;-68
2023/02/07 05:57:59;;;;;;;12.00;6.00;;;;;;;-4.91;65.74;100562.66;79230;1298;3011676;-67
2023/02/07 06:00:27;;;;;;;16.20;6.70;;;;;;;-4.90;66.01;100564.89;77992;1300;3053494;-65
2023/02/07 06:02:53;;;;;;;14.90;6.80;;;;;;;-4.92;66.16;100562.30;79239;1299;3020511;-66
2023/02/07 06:05:21;;;;;;;15.90;6.30;;;;;;;-4.90;65.65;100561.48;79275;1300;3011829;-64
2023/02/07 06:07:50;;;;;;;19.00;6.90;;;;;;;-4.78;65.54;100565.64;78058;1300;3050159;-66
2023/02/07 06:10:17;;;;;;;18.90;8.30;;;;;;;-4.77;65.34;100568.40;79234;1298;3014231;-65
2023/02/07 06:12:44;;;;;;;18.40;8.20;;;;;;;-4.94;65.48;100574.55;79201;1298;3011604;-65
2023/02/07 06:15:12;;;;;;;17.20;7.40;;;;;;;-4.91;65.68;100579.91;78063;1297;3054625;-64
2023/02/07 06:17:40;;;;;;;17.40;7.90;;;;;;;-4.83;65.14;100577.70;79229;1297;3012869;-64
2023/02/07 06:20:07;;;;;;;20.00;8.40;;;;;;;-4.85;64.74;100577.66;79298;1298;3011630;-66
2023/02/07 06:22:36;;;;;;;22.60;8.20;;;;;;;-5.04;65.75;100581.87;78053;1298;3049007;-67
2023/02/07 06:25:02;;;;;;;20.50;7.50;;;;;;;-4.84;65.32;100577.14;79326;1298;3012872;-67
2023/02/07 06:27:29;;;;;;;14.40;6.50;;;;;;;-4.79;64.88;100574.34;79304;1297;3012915;-65
2023/02/07 06:29:57;;;;;;;15.40;7.40;;;;;;;-4.85;64.86;100580.56;78006;1301;3029443;-65
2023/02/07 06:32:23;;;;;;;16.80;7.60;;;;;;;-4.84;64.50;100580.91;79211;1296;3013706;-63
2023/02/07 06:34:50;;;;;;;13.30;6.40;;;;;;;-4.68;64.04;100575.40;79253;1296;3011662;-65
2023/02/07 06:37:18;;;;;;;15.20;7.40;;;;;;;-4.55;63.73;100581.64;78055;1300;3029858;-64
2023/02/07 06:39:44;;;;;;;12.30;6.10;;;;;;;-4.68;63.16;100579.17;79245;1297;3012930;-62
2023/02/07 06:42:11;;;;;;;15.90;7.20;;;;;;;-4.84;63.54;100587.74;79279;1296;3012227;-63
2023/02/07 06:44:39;;;;;;;13.60;6.40;;;;;;;-4.97;63.63;100594.84;77986;1301;3029619;-63
2023/02/07 06:47:06;;;;;;;12.60;5.60;;;;;;;-5.12;64.09;100594.54;79202;1298;3013146;-64
2023/02/07 06:49:33;;;;;;;14.60;5.80;;;;;;;-5.03;64.22;100593.52;79150;1297;3011758;-64
2023/02/07 06:52:01;;;;;;;10.90;5.70;;;;;;;-5.03;64.00;100595.91;77935;1300;3050283;-64
2023/02/07 06:54:29;;;;;;;13.60;5.70;;;;;;;-4.90;64.18;100598.91;79312;1298;3013046;-64
2023/02/07 06:56:55;;;;;;;15.20;7.10;;;;;;;-4.96;64.00;100592.14;79267;1297;3011810;-66
2023/02/07 06:59:23;;;;;;;16.20;6.50;;;;;;;-4.85;63.60;100588.59;78005;1300;3054153;-65
2023/02/07 07:01:49;;;;;;;11.20;5.50;;;;;;;-4.55;62.61;100589.85;79252;1301;3013003;-66
2023/02/07 07:04:17;;;;;;;15.60;7.10;;;;;;;-4.45;61.52;100596.36;79230;1296;3013453;-67
2023/02/07 07:06:45;;;;;;;18.60;7.80;;;;;;;-4.44;61.51;100600.48;77964;1298;3050191;-64
2023/02/07 07:09:12;;;;;;;15.20;6.30;;;;;;;-4.40;60.81;100602.95;79231;1301;3012963;-66
2023/02/07 07:11:41;;;;;;;13.90;5.00;;;;;;;-4.27;60.21;100602.52;79193;1296;3011773;-64
2023/02/07 07:14:10;;;;;;;13.30;5.10;;;;;;;-4.22;59.22;100608.08;78016;1300;3051795;-64
2023/02/07 07:16:37;;;;;;;11.30;5.40;;;;;;;-4.07;59.05;100611.58;79193;1301;3011681;-63
2023/02/07 07:19:04;;;;;;;12.20;5.40;;;;;;;-3.95;58.78;100610.08;79250;1298;3013355;-65
2023/02/07 07:21:32;;;;;;;14.20;5.70;;;;;;;-4.08;57.47;100612.43;77993;1300;3049506;-65
2023/02/07 07:24:00;;;;;;;12.40;5.30;;;;;;;-4.20;56.85;100611.88;79604;1297;3016315;-64
2023/02/07 07:26:27;;;;;;;11.40;5.40;;;;;;;-4.06;57.20;100608.86;79250;1296;3011611;-64
2023/02/07 07:28:59;;;;;;;11.20;4.80;;;;;;;-4.07;56.06;100606.95;78045;1300;3053184;-69
2023/02/07 07:31:26;;;;;;;10.00;5.20;;;;;;;-4.08;55.68;100608.66;79380;1300;3012973;-64
2023/02/07 07:33:53;;;;;;;7.30;4.00;;;;;;;-4.08;55.44;100604.89;79231;1298;3011935;-65
2023/02/07 07:36:21;;;;;;;10.40;4.40;;;;;;;-4.09;55.35;100603.85;78013;1301;3050734;-66
2023/02/07 07:38:47;;;;;;;11.30;4.70;;;;;;;-3.98;55.03;100600.27;79374;1297;3014052;-68
2023/02/07 07:41:14;;;;;;;14.20;5.60;;;;;;;-4.01;54.97;100599.89;79550;1298;3013563;-63
2023/02/07 07:43:42;;;;;;;15.20;5.50;;;;;;;-3.82;55.32;100602.92;78061;1300;3027157;-62
2023/02/07 07:46:09;;;;;;;12.10;4.70;;;;;;;-3.93;54.23;100609.09;79354;1296;3012949;-65
2023/02/07 07:48:36;;;;;;;9.80;5.10;;;;;;;-4.05;54.44;100608.88;79172;1300;3011701;-65
2023/02/07 07:51:04;;;;;;;15.50;5.10;;;;;;;-4.17;54.10;100609.02;77985;1300;3050702;-66
2023/02/07 07:53:31;;;;;;;8.80;5.10;;;;;;;-4.09;54.20;100606.94;79207;1297;3020553;-67
2023/02/07 07:55:58;;;;;;;11.50;4.30;;;;;;;-3.91;54.35;100604.84;79162;1300;3011756;-68
2023/02/07 07:59:24;;;;;;;15.30;5.70;;;;;;;-3.71;53.67;100612.00;80162;1301;3013159;-63
2023/02/07 08:01:51;;;;;;;15.10;5.90;;;;;;;-3.58;53.65;100610.85;79075;1301;3013500;-64
2023/02/07 08:04:17;;;;;;;10.50;4.90;;;;;;;-3.41;53.62;100609.71;79238;1301;3013141;-63
2023/02/07 08:06:45;;;;;;;10.60;4.70;;;;;;;-3.30;53.51;100611.42;77902;1301;3028150;-64
2023/02/07 08:09:11;;;;;;;11.80;5.80;;;;;;;-3.23;53.46;100618.02;79420;1301;3012900;-67
2023/02/07 08:11:39;;;;;;;12.70;5.90;;;;;;;-3.19;53.63;100620.15;77961;1298;3013560;-64
2023/02/07 08:14:07;;;;;;;15.20;6.60;;;;;;;-3.09;53.93;100623.88;78364;1299;3050906;-67
2023/02/07 08:16:34;;;;;;;16.00;7.00;;;;;;;-3.10;53.20;100625.41;79418;1294;3013216;-64
2023/02/07 08:19:02;;;;;;;13.90;6.90;;;;;;;-3.23;53.15;100626.27;79470;1295;3011628;-66
2023/02/07 08:21:31;;;;;;;15.40;6.70;;;;;;;-3.31;52.96;100628.20;78181;1301;3052594;-66
2023/02/07 08:23:57;;;;;;;17.40;7.10;;;;;;;-3.28;53.14;100618.14;79347;1298;3013866;-65
2023/02/07 08:26:24;;;;;;;17.90;6.60;;;;;;;-3.44;53.39;100627.34;79380;1298;3012759;-64
2023/02/07 08:28:52;;;;;;;14.40;6.10;;;;;;;-3.16;53.20;100618.13;78112;1298;3029746;-65
2023/02/07 08:31:19;;;;;;;16.60;6.90;;;;;;;-3.13;51.99;100615.08;79259;1295;3013385;-65
2023/02/07 08:33:45;;;;;;;15.20;7.50;;;;;;;-3.30;51.79;100614.85;79349;1295;3013105;-64
2023/02/07 08:36:13;;;;;;;14.20;6.10;;;;;;;-3.13;52.53;100619.89;78194;1296;3025156;-67
2023/02/07 08:38:40;;;;;;;15.10;6.50;;;;;;;-2.95;51.62;100609.84;79330;1298;3012905;-65
2023/02/07 08:41:06;;;;;;;15.40;7.00;;;;;;;-2.85;51.66;100605.85;79322;1300;3011837;-65
2023/02/07 08:43:34;;;;;;;20.40;8.00;;;;;;;-2.71;51.90;100600.86;78129;1295;3028082;-65
2023/02/07 08:46:01;;;;;;;18.70;7.60;;;;;;;-3.05;51.57;100599.42;79429;1296;3013299;-63
2023/02/07 08:48:28;;;;;;;18.60;6.90;;;;;;;-3.18;51.93;100601.98;79376;1299;3011705;-68
2023/02/07 08:50:56;;;;;;;18.40;8.20;;;;;;;-3.11;51.85;100600.71;78632;1295;3027510;-67
2023/02/07 08:53:22;;;;;;;24.20;8.40;;;;;;;-3.30;52.28;100607.31;79719;1294;3015703;-66
2023/02/07 08:55:49;;;;;;;16.40;7.50;;;;;;;-3.33;52.52;100609.49;79288;1295;3011417;-68
2023/02/07 08:58:17;;;;;;;17.00;7.60;;;;;;;-3.14;52.22;100611.64;78127;1301;3029796;-65
2023/02/07 09:00:44;;;;;;;16.80;6.40;;;;;;;-3.11;52.22;100607.75;79419;1298;3013475;-67
2023/02/07 09:03:12;;;;;;;20.10;7.90;;;;;;;-3.28;52.57;100610.25;79535;1301;3011975;-64
2023/02/07 09:05:40;;;;;;;15.10;6.20;;;;;;;-3.28;53.01;100607.16;78000;1301;3053256;-64
2023/02/07 09:08:06;;;;;;;13.70;5.70;;;;;;;-3.11;52.73;100602.27;79499;1299;3019248;-65
2023/02/07 09:10:33;;;;;;;11.90;5.20;;;;;;;-3.05;52.72;100604.89;79481;1300;3013462;-66
2023/02/07 09:13:01;;;;;;;14.70;5.20;;;;;;;-2.88;52.52;100612.83;78268;1301;3027040;-66
2023/02/07 09:15:27;;;;;;;14.70;6.10;;;;;;;-2.88;52.28;100616.77;79416;1295;3013834;-67
2023/02/07 09:17:54;;;;;;;16.70;7.00;;;;;;;-3.03;52.35;100612.48;79553;1298;3013671;-65
2023/02/07 09:20:21;;;;;;;13.40;6.10;;;;;;;-3.16;53.44;100615.89;78298;1295;3027863;-63
2023/02/07 09:25:37;;;;;;;14.50;5.90;;;;;;;-2.53;52.39;100609.48;78125;1295;3056612;-65
2023/02/07 09:28:05;;;;;;;9.90;5.20;;;;;;;-2.55;52.01;100603.64;79281;1300;3012869;-65
2023/02/07 09:30:33;;;;;;;11.70;5.10;;;;;;;-2.44;51.92;100601.35;78274;1296;3027017;-64
2023/02/07 09:32:59;;;;;;;12.40;5.50;;;;;;;-2.34;51.65;100605.56;79242;1301;3018572;-67
2023/02/07 09:35:26;;;;;;;15.60;6.60;;;;;;;-2.18;51.72;100605.20;79456;1301;3011957;-63
2023/02/07 09:37:54;;;;;;;13.10;6.80;;;;;;;-2.11;51.46;100600.29;78080;1295;3026314;-64
2023/02/07 09:40:21;;;;;;;16.10;7.70;;;;;;;-1.97;51.04;100602.83;79419;1300;3013850;-63
2023/02/07 09:43:02;;;;;;;17.40;7.20;;;;;;;-1.73;51.04;100606.11;79186;1296;3012994;-65
2023/02/07 09:45:31;;;;;;;9.50;5.60;;;;;;;-1.49;50.60;100603.54;78260;1300;3053516;-65
2023/02/07 09:48:02;;;;;;;9.20;4.40;;;;;;;-1.47;49.67;100606.48;79479;1296;3016008;-65
2023/02/07 09:50:33;;;;;;;11.10;4.10;;;;;;;-1.37;49.80;100607.57;78186;1297;3051944;-64
2023/02/07 09:53:19;;;;;;;10.00;4.20;;;;;;;-1.77;50.00;100611.59;79358;1297;3011736;-62
2023/02/07 09:55:53;;;;;;;12.70;5.00;;;;;;;-1.83;50.46;100616.17;78207;1299;3051027;-66
2023/02/07 09:58:44;;;;;;;11.90;5.20;;;;;;;-1.67;50.65;100617.33;79345;1295;3013320;-64
2023/02/07 10:01:14;;;;;;;10.50;5.00;;;;;;;-1.78;50.77;100606.94;78153;1300;3048678;-65
2023/02/07 10:03:52;;;;;;;14.00;4.50;;;;;;;-1.78;50.82;100609.67;79435;1295;3011682;-66
2023/02/07 10:06:27;;;;;;;15.80;5.60;;;;;;;-1.76;51.02;100607.80;78217;1299;3051074;-63
2023/02/07 10:08:58;;;;;;;8.80;5.00;;;;;;;-1.71;51.50;100598.06;78869;1298;3011862;-65
2023/02/07 10:11:38;;;;;;;12.90;4.70;;;;;;;-1.43;50.45;100591.38;79514;1295;3014302;-63
2023/02/07 10:14:27;;;;;;;11.20;4.60;;;;;;;-1.28;50.26;100588.55;78127;1301;3052039;-64
2023/02/07 10:17:22;;;;;;;16.00;5.00;;;;;;;-1.30;50.48;100590.07;78111;1299;3068423;-67
2023/02/07 10:20:00;;;;;;;10.30;4.80;;;;;;;-1.30;50.96;100586.47;78242;1297;3051110;-64
2023/02/07 10:22:38;;;;;;;9.30;4.80;;;;;;;-1.72;51.55;100585.68;78065;1301;3058429;-66
2023/02/07 10:25:19;;;;;;;11.50;4.40;;;;;;;-1.76;51.95;100589.93;78398;1295;3048930;-64
2023/02/07 10:28:11;;;;;;;8.10;4.30;;;;;;;-1.54;51.86;100588.05;78562;1299;3054291;-67
2023/02/07 10:30:50;;;;;;;14.40;4.40;;;;;;;-1.41;51.48;100581.76;78143;1298;3051343;-65
2023/02/07 10:33:20;;;;;;;8.40;4.10;;;;;;;-1.12;51.31;100575.21;78288;1301;3053692;-65
2023/02/07 10:35:47;;;;;;;9.70;4.10;;;;;;;-1.09;50.88;100576.60;79512;1298;3013555;-64
2023/02/07 10:38:24;;;;;;;12.80;4.70;;;;;;;-0.86;50.73;100573.10;79353;1295;3011668;-63
2023/02/07 10:41:15;;;;;;;13.30;5.20;;;;;;;-1.22;51.28;100575.67;78250;1298;3058225;-62
2023/02/07 10:43:44;;;;;;;11.60;5.40;;;;;;;-1.33;51.74;100579.58;78189;1301;3049029;-63
2023/02/07 10:46:13;;;;;;;12.30;6.30;;;;;;;-1.25;51.67;100578.23;79326;1296;3013737;-63
2023/02/07 10:48:42;;;;;;;9.80;5.40;;;;;;;-1.38;51.94;100585.39;78800;1298;3014003;-62
2023/02/07 10:51:20;;;;;;;17.90;5.30;;;;;;;-1.32;51.86;100588.02;79343;1301;3021183;-66
2023/02/07 10:53:49;;;;;;;11.40;5.80;;;;;;;-1.35;51.70;100585.23;78314;1298;3070256;-62
2023/02/07 10:56:21;;;;;;;12.50;5.60;;;;;;;-1.15;51.85;100580.71;79668;1299;3013840;-65
2023/02/07 10:58:49;;;;;;;14.00;6.20;;;;;;;-1.00;51.42;100581.98;78370;1301;3051105;-65
2023/02/07 11:01:20;;;;;;;14.80;7.10;;;;;;;-1.09;51.31;100586.06;79320;1295;3013666;-65
2023/02/07 11:03:48;;;;;;;17.40;6.90;;;;;;;-1.27;52.20;100584.08;78216;1300;3053877;-66
2023/02/07 11:06:24;;;;;;;16.30;6.90;;;;;;;-1.21;51.87;100586.02;79568;1298;3016033;-63
2023/02/07 11:09:22;;;;;;;16.10;5.70;;;;;;;-1.26;52.10;100585.29;78321;1295;3051037;-63
2023/02/07 11:11:51;;;;;;;16.10;7.20;;;;;;;-1.40;52.40;100591.90;78204;1300;3056953;-64
2023/02/07 11:14:25;;;;;;;12.30;5.50;;;;;;;-1.60;52.95;100588.16;79412;1298;3013977;-65
2023/02/07 11:16:58;;;;;;;11.50;5.70;;;;;;;-1.55;52.97;100592.51;78112;1300;3050569;-64
2023/02/07 11:19:26;;;;;;;13.40;5.60;;;;;;;-1.65;53.37;100595.17;79300;1298;3011855;-65
2023/02/07 11:22:05;;;;;;;13.80;6.80;;;;;;;-1.91;53.61;100598.73;78092;1301;3052074;-63
2023/02/07 11:24:36;;;;;;;15.60;6.80;;;;;;;-1.90;54.13;100607.34;78095;1298;3068971;-65